Time;durP1;ratioP1;P1;durP2;ratioP2;P2;SDS_P1;SDS_P2;PMS_P1;PMS_P2;Temp;Humidity;BMP_temperature;BMP_pressure;BME280_temperature;BME280_humidity;BME280_pressure;Samples;Min_cycle;Max_cycle;Signal;HPM_P1;HPM_P2
2022/06/22 05:00:17;;;;;;;11.90;10.83;;;23.10;97.20;;;;;;1716123;28;20189;-73
2022/06/22 05:01:13;;;;;;;11.38;10.50;;;23.10;97.20;;;;;;1716121;28;20229;-73
2022/06/22 05:02:10;;;;;;;11.43;10.32;;;23.10;97.20;;;;;;1716052;28;20205;-73
2022/06/22 05:03:05;;;;;;;12.27;11.25;;;23.10;97.20;;;;;;1716138;28;20205;-77
2022/06/22 05:03:59;;;;;;;10.73;9.82;;;23.20;97.20;;;;;;1716198;28;20190;-74
2022/06/22 05:04:53;;;;;;;12.13;11.07;;;23.20;97.20;;;;;;1716143;28;20653;-74
2022/06/22 05:05:45;;;;;;;11.80;10.80;;;23.20;97.20;;;;;;1715763;28;20205;-74
2022/06/22 05:06:46;;;;;;;11.07;10.35;;;23.20;97.20;;;;;;1714822;28;20739;-74
2022/06/22 05:07:46;;;;;;;11.65;10.60;;;23.20;97.20;;;;;;1715935;28;20194;-74
2022/06/22 05:08:43;;;;;;;12.77;11.60;;;23.20;97.20;;;;;;1715972;28;20657;-74
2022/06/22 05:09:40;;;;;;;11.75;10.52;;;23.20;97.20;;;;;;1716089;28;20225;-73
2022/06/22 05:10:40;;;;;;;11.40;10.50;;;23.20;97.20;;;;;;1715781;28;20700;-74
2022/06/22 05:11:39;;;;;;;11.60;10.70;;;23.20;97.20;;;;;;1715643;28;20197;-74
2022/06/22 05:12:44;;;;;;;12.60;11.63;;;23.20;97.20;;;;;;1712095;28;20218;-73
2022/06/22 05:13:41;;;;;;;12.07;11.05;;;23.10;97.20;;;;;;1714888;28;20194;-74
2022/06/22 05:14:33;;;;;;;11.68;10.88;;;23.10;97.20;;;;;;1709311;29;20257;-74
2022/06/22 05:15:30;;;;;;;12.20;11.18;;;23.10;97.20;;;;;;1712329;28;20190;-74
2022/06/22 05:16:23;;;;;;;11.80;10.90;;;23.10;97.20;;;;;;1715938;28;20575;-74
2022/06/22 05:17:22;;;;;;;12.45;11.45;;;23.10;97.20;;;;;;1715697;28;20201;-74
2022/06/22 05:18:18;;;;;;;11.85;10.95;;;23.10;97.20;;;;;;1716157;28;20209;-74
2022/06/22 05:19:13;;;;;;;11.85;10.95;;;23.20;97.20;;;;;;1715952;28;20201;-74
2022/06/22 05:20:13;;;;;;;13.18;12.18;;;23.20;97.20;;;;;;1714304;28;20225;-73
2022/06/22 05:21:12;;;;;;;12.10;10.90;;;23.20;97.20;;;;;;1713961;28;20198;-74
2022/06/22 05:22:10;;;;;;;11.10;10.30;;;23.20;97.20;;;;;;1713694;28;20657;-73
2022/06/22 05:23:04;;;;;;;11.63;10.65;;;23.20;97.20;;;;;;1713842;28;20209;-74
2022/06/22 05:23:57;;;;;;;11.85;10.95;;;23.20;97.20;;;;;;1713334;28;20198;-73
2022/06/22 05:24:54;;;;;;;11.90;11.02;;;23.20;97.20;;;;;;1687002;28;20281;-73
2022/06/22 05:25:48;;;;;;;11.93;10.73;;;23.20;97.20;;;;;;1712350;28;20209;-73
2022/06/22 05:26:41;;;;;;;12.45;11.45;;;23.20;97.20;;;;;;1713012;28;20264;-73
2022/06/22 05:27:46;;;;;;;12.27;11.45;;;23.20;97.20;;;;;;1707088;29;20222;-73
2022/06/22 05:28:42;;;;;;;12.60;11.70;;;23.20;97.20;;;;;;1707310;29;20190;-73
2022/06/22 05:29:38;;;;;;;12.35;10.80;;;23.30;97.20;;;;;;1707454;29;20199;-73
2022/06/22 05:30:36;;;;;;;11.20;10.15;;;23.30;97.20;;;;;;1708303;29;20195;-74
2022/06/22 05:31:31;;;;;;;11.80;10.60;;;23.30;97.20;;;;;;1707756;28;20746;-74
2022/06/22 05:32:28;;;;;;;11.88;10.88;;;23.30;97.20;;;;;;1707514;29;20195;-73
2022/06/22 05:33:22;;;;;;;11.75;10.68;;;23.30;97.20;;;;;;1707025;29;20214;-73
2022/06/22 05:34:17;;;;;;;11.68;10.77;;;23.40;97.20;;;;;;1707276;28;20206;-74
2022/06/22 05:35:14;;;;;;;12.10;11.05;;;23.40;97.20;;;;;;1706943;29;20230;-73
2022/06/22 05:36:09;;;;;;;11.30;10.30;;;23.50;97.20;;;;;;1707267;29;20225;-73
2022/06/22 05:37:04;;;;;;;12.00;10.90;;;23.50;97.20;;;;;;1707003;28;20651;-73
2022/06/22 05:38:00;;;;;;;11.50;10.50;;;23.50;97.20;;;;;;1707113;29;20198;-73
2022/06/22 05:38:56;;;;;;;15.75;14.35;;;23.50;97.20;;;;;;1707574;29;20346;-73
2022/06/22 05:39:48;;;;;;;11.55;10.55;;;23.40;97.20;;;;;;1707015;29;20680;-74
2022/06/22 05:40:40;;;;;;;11.32;10.20;;;23.40;97.20;;;;;;1707245;29;20237;-73
2022/06/22 05:41:36;;;;;;;11.27;10.23;;;23.40;97.20;;;;;;1707140;28;20205;-73
2022/06/22 05:42:30;;;;;;;11.20;10.32;;;23.40;97.20;;;;;;1707284;29;20235;-73
2022/06/22 05:43:23;;;;;;;12.20;11.20;;;23.40;97.20;;;;;;1706856;29;20230;-73
2022/06/22 05:44:17;;;;;;;10.35;9.55;;;23.40;97.20;;;;;;1706693;28;20237;-73
2022/06/22 05:45:15;;;;;;;10.68;9.68;;;23.40;97.20;;;;;;1705340;29;20265;-73
2022/06/22 05:46:10;;;;;;;11.45;10.65;;;23.40;97.20;;;;;;1705327;29;20207;-73
2022/06/22 05:47:02;;;;;;;11.57;10.50;;;23.40;97.20;;;;;;1705291;29;20555;-74
2022/06/22 05:47:56;;;;;;;11.40;10.50;;;23.30;97.20;;;;;;1705616;29;20585;-74
2022/06/22 05:48:50;;;;;;;10.60;9.80;;;23.30;97.20;;;;;;1705913;29;20278;-73
2022/06/22 05:49:46;;;;;;;10.55;9.63;;;23.30;97.20;;;;;;1706029;29;20199;-73
2022/06/22 05:50:42;;;;;;;11.00;10.10;;;23.30;97.20;;;;;;1705928;28;20309;-73
2022/06/22 05:51:41;;;;;;;10.90;9.85;;;23.30;97.20;;;;;;1706716;29;20209;-74
2022/06/22 05:52:37;;;;;;;10.60;9.60;;;23.30;97.20;;;;;;1705996;29;20234;-74
2022/06/22 05:53:34;;;;;;;10.20;9.30;;;23.30;97.20;;;;;;1706167;29;20343;-74
2022/06/22 05:54:34;;;;;;;10.95;10.07;;;23.20;97.20;;;;;;1706102;29;20724;-74
2022/06/22 05:55:32;;;;;;;10.18;9.27;;;23.20;97.20;;;;;;1705742;29;20696;-74
2022/06/22 05:56:30;;;;;;;10.65;9.75;;;23.20;97.20;;;;;;1706029;29;20230;-74
2022/06/22 05:57:29;;;;;;;10.70;9.80;;;23.20;97.20;;;;;;1705907;29;20207;-74
2022/06/22 05:58:32;;;;;;;10.90;9.90;;;23.20;97.20;;;;;;1706694;29;20740;-74
2022/06/22 05:59:30;;;;;;;10.57;9.60;;;23.20;97.20;;;;;;1706379;29;20209;-74
2022/06/22 06:00:26;;;;;;;11.13;9.98;;;23.20;97.20;;;;;;1705882;28;20238;-74
2022/06/22 06:01:28;;;;;;;11.20;10.23;;;23.20;97.20;;;;;;1706143;29;20199;-73
2022/06/22 06:02:27;;;;;;;10.48;9.50;;;23.20;97.20;;;;;;1706087;29;21572;-73
2022/06/22 06:03:28;;;;;;;11.02;9.98;;;23.10;97.20;;;;;;1706102;29;20203;-73
2022/06/22 06:04:29;;;;;;;12.40;9.80;;;23.20;97.20;;;;;;1706332;29;20270;-74
2022/06/22 06:05:25;;;;;;;10.50;9.60;;;23.10;97.20;;;;;;1706093;29;20211;-74
2022/06/22 06:06:21;;;;;;;10.40;9.60;;;23.10;97.20;;;;;;1706290;29;20226;-74
2022/06/22 06:07:17;;;;;;;11.18;10.02;;;23.10;97.20;;;;;;1705800;29;20199;-74
2022/06/22 06:08:16;;;;;;;11.75;10.60;;;23.10;97.20;;;;;;1706140;29;20202;-74
2022/06/22 06:09:13;;;;;;;12.25;11.15;;;23.10;97.20;;;;;;1705870;29;20230;-74
2022/06/22 06:10:14;;;;;;;11.77;10.57;;;23.00;97.20;;;;;;1705749;29;20563;-73
2022/06/22 06:11:12;;;;;;;10.95;10.00;;;23.00;97.20;;;;;;1706612;29;20203;-73
2022/06/22 06:12:09;;;;;;;10.88;9.85;;;23.00;97.20;;;;;;1705922;29;20237;-74
2022/06/22 06:13:04;;;;;;;12.27;9.98;;;23.00;97.20;;;;;;1706043;29;20214;-73
2022/06/22 06:13:59;;;;;;;10.57;9.77;;;23.00;97.20;;;;;;1706226;29;20298;-74
2022/06/22 06:14:52;;;;;;;10.90;9.90;;;23.00;97.20;;;;;;1706061;29;20930;-74
2022/06/22 06:15:45;;;;;;;11.88;10.70;;;23.00;97.20;;;;;;1706095;29;20289;-73
2022/06/22 06:16:45;;;;;;;11.63;10.10;;;23.00;97.20;;;;;;1705695;29;20217;-73
2022/06/22 06:17:41;;;;;;;11.60;10.40;;;22.90;97.20;;;;;;1706540;29;20581;-73
2022/06/22 06:18:36;;;;;;;10.93;10.00;;;22.90;97.20;;;;;;1706045;29;20658;-74
2022/06/22 06:19:33;;;;;;;11.18;10.30;;;22.90;97.20;;;;;;1706030;29;20194;-74
2022/06/22 06:20:28;;;;;;;11.20;10.30;;;22.90;97.20;;;;;;1705701;28;20202;-74
2022/06/22 06:21:23;;;;;;;10.98;10.00;;;22.80;97.20;;;;;;1705867;29;20198;-73
2022/06/22 06:22:14;;;;;;;11.90;10.90;;;22.80;97.20;;;;;;1706130;29;20441;-73
2022/06/22 06:23:11;;;;;;;12.50;11.30;;;22.80;97.20;;;;;;1706282;29;20290;-73
2022/06/22 06:24:07;;;;;;;12.95;11.80;;;22.80;97.20;;;;;;1706421;29;20439;-74
2022/06/22 06:27:38;;;;;;;12.68;11.38;;;22.70;97.20;;;;;;1705742;29;20278;-73
2022/06/22 06:28:36;;;;;;;11.55;10.45;;;22.70;97.20;;;;;;1705869;29;20218;-74
2022/06/22 06:29:32;;;;;;;11.18;10.27;;;22.70;97.20;;;;;;1705686;29;20210;-73
2022/06/22 06:30:29;;;;;;;12.15;10.95;;;22.60;97.20;;;;;;1705476;28;20603;-74
2022/06/22 06:31:24;;;;;;;12.25;11.25;;;22.60;97.20;;;;;;1706289;28;20215;-73
2022/06/22 06:32:35;;;;;;;15.07;11.27;;;22.60;97.20;;;;;;1705834;29;20201;-74
2022/06/22 06:33:32;;;;;;;12.98;11.82;;;22.60;97.20;;;;;;1705958;29;20571;-74
2022/06/22 06:34:28;;;;;;;13.73;12.52;;;22.60;97.20;;;;;;1706129;29;20202;-73
2022/06/22 06:35:28;;;;;;;12.73;11.48;;;22.60;97.20;;;;;;1705714;29;20207;-74
2022/06/22 06:36:25;;;;;;;13.55;12.15;;;22.60;97.20;;;;;;1705967;29;20570;-74
2022/06/22 06:37:23;;;;;;;12.90;11.70;;;22.50;97.20;;;;;;1706492;29;20207;-73
2022/06/22 06:38:24;;;;;;;13.32;12.13;;;22.50;97.20;;;;;;1705951;29;20230;-73
2022/06/22 06:39:22;;;;;;;12.95;11.95;;;22.50;97.20;;;;;;1705961;28;20297;-73
2022/06/22 06:40:28;;;;;;;13.88;12.40;;;22.40;97.20;;;;;;1705947;28;20214;-73
2022/06/22 06:41:24;;;;;;;12.88;11.60;;;22.40;97.20;;;;;;1705999;29;20299;-74
2022/06/22 06:42:29;;;;;;;14.00;12.60;;;22.40;97.20;;;;;;1706039;29;20301;-73
2022/06/22 06:43:33;;;;;;;12.10;11.20;;;22.40;97.20;;;;;;1706006;29;20225;-73
2022/06/22 06:44:25;;;;;;;11.82;10.82;;;22.40;97.20;;;;;;1705404;29;20617;-74
2022/06/22 06:45:21;;;;;;;12.40;10.90;;;22.30;97.20;;;;;;1705860;29;20217;-74
2022/06/22 06:46:18;;;;;;;11.10;10.13;;;22.30;97.20;;;;;;1705868;29;20191;-74
2022/06/22 06:47:15;;;;;;;11.00;9.98;;;22.30;97.20;;;;;;1705576;29;20198;-74
2022/06/22 06:48:16;;;;;;;11.38;9.88;;;22.30;97.20;;;;;;1705786;29;20306;-73
2022/06/22 06:49:13;;;;;;;11.25;10.10;;;22.30;97.20;;;;;;1705499;29;20226;-73
2022/06/22 06:50:09;;;;;;;12.77;11.55;;;22.20;97.20;;;;;;1705968;29;20203;-74
2022/06/22 06:51:03;;;;;;;11.77;10.63;;;22.20;97.20;;;;;;1706264;29;20226;-74
2022/06/22 06:51:59;;;;;;;10.93;10.05;;;22.20;97.20;;;;;;1705775;29;20223;-73
2022/06/22 06:52:57;;;;;;;11.18;10.15;;;22.20;97.20;;;;;;1706345;29;20198;-74
2022/06/22 06:53:55;;;;;;;11.93;10.93;;;22.10;97.20;;;;;;1705673;29;20206;-74
2022/06/22 06:54:52;;;;;;;11.13;10.13;;;22.10;97.20;;;;;;1705589;29;20223;-73
2022/06/22 06:55:49;;;;;;;11.23;10.13;;;22.10;97.20;;;;;;1705625;28;20584;-73
2022/06/22 06:56:46;;;;;;;11.00;9.88;;;22.10;97.20;;;;;;1705262;29;20218;-73
2022/06/22 06:57:42;;;;;;;12.80;10.35;;;22.10;97.20;;;;;;1704869;29;20205;-73
2022/06/22 06:58:41;;;;;;;10.38;9.48;;;22.20;97.20;;;;;;1705849;29;20233;-73
2022/06/22 06:59:34;;;;;;;11.23;10.23;;;22.20;97.20;;;;;;1705813;29;20578;-74
2022/06/22 07:00:26;;;;;;;11.30;10.30;;;22.20;97.20;;;;;;1705398;29;20207;-74
2022/06/22 07:01:22;;;;;;;11.90;9.70;;;22.20;97.20;;;;;;1705834;28;20257;-73
2022/06/22 07:02:16;;;;;;;10.13;9.20;;;22.30;97.20;;;;;;1705711;29;20206;-73
2022/06/22 07:03:17;;;;;;;10.43;9.63;;;22.30;97.20;;;;;;1705943;29;20186;-74
2022/06/22 07:04:14;;;;;;;9.75;8.75;;;22.30;97.20;;;;;;1704508;29;20591;-74
2022/06/22 07:05:12;;;;;;;12.65;10.60;;;22.30;97.20;;;;;;1705675;29;20191;-73
2022/06/22 07:06:03;;;;;;;10.70;9.60;;;22.40;97.20;;;;;;1705866;28;20609;-73
2022/06/22 07:06:59;;;;;;;12.48;9.73;;;22.40;97.20;;;;;;1708563;28;20245;-73
2022/06/22 07:07:57;;;;;;;11.18;10.13;;;22.40;97.20;;;;;;1709147;28;20673;-74
2022/06/22 07:08:54;;;;;;;11.23;10.32;;;22.40;97.20;;;;;;1708481;28;20218;-74
2022/06/22 07:09:48;;;;;;;10.45;9.40;;;22.50;97.20;;;;;;1708191;28;20657;-74
2022/06/22 07:10:43;;;;;;;10.85;9.85;;;22.50;97.20;;;;;;1709702;28;20713;-73
2022/06/22 07:11:39;;;;;;;11.40;10.50;;;22.50;97.20;;;;;;1709733;28;20199;-73
2022/06/22 07:12:36;;;;;;;10.52;9.73;;;22.60;97.20;;;;;;1705364;29;20206;-73
2022/06/22 07:13:32;;;;;;;11.88;10.77;;;22.60;97.20;;;;;;1705531;29;20682;-73
2022/06/22 07:14:28;;;;;;;11.60;10.52;;;22.60;97.20;;;;;;1705630;29;20254;-73
2022/06/22 07:15:22;;;;;;;12.73;11.38;;;22.60;97.20;;;;;;1705410;29;20194;-74
2022/06/22 07:16:19;;;;;;;11.68;10.55;;;22.70;97.20;;;;;;1705706;29;20203;-74
2022/06/22 07:17:17;;;;;;;12.55;11.45;;;22.70;97.20;;;;;;1704942;29;20207;-73
2022/06/22 07:18:20;;;;;;;12.15;11.15;;;22.70;97.20;;;;;;1705820;28;20659;-73
2022/06/22 07:19:17;;;;;;;11.80;10.80;;;22.70;97.20;;;;;;1705482;29;20591;-74
2022/06/22 07:20:17;;;;;;;12.85;11.65;;;22.70;97.20;;;;;;1705375;29;20218;-74
2022/06/22 07:21:17;;;;;;;11.85;11.00;;;22.80;97.20;;;;;;1705832;28;20651;-74
2022/06/22 07:22:15;;;;;;;12.40;11.30;;;22.80;97.20;;;;;;1705209;29;20214;-73
2022/06/22 07:23:12;;;;;;;11.68;10.68;;;22.80;97.20;;;;;;1706066;29;20230;-74
2022/06/22 07:24:09;;;;;;;12.32;11.10;;;22.90;97.20;;;;;;1705396;29;20199;-73
2022/06/22 07:25:04;;;;;;;13.38;11.38;;;22.90;97.20;;;;;;1705728;29;20206;-73
2022/06/22 07:26:03;;;;;;;13.45;11.70;;;22.90;97.20;;;;;;1705647;28;20214;-73
2022/06/22 07:27:00;;;;;;;12.82;11.52;;;22.90;97.20;;;;;;1705276;29;20211;-73
2022/06/22 07:27:57;;;;;;;13.40;12.25;;;23.00;97.20;;;;;;1705609;29;20639;-73
2022/06/22 07:28:54;;;;;;;12.73;11.68;;;23.00;97.20;;;;;;1705437;29;20199;-73
2022/06/22 07:29:53;;;;;;;14.27;13.05;;;23.00;97.20;;;;;;1706635;29;20194;-73
2022/06/22 07:30:50;;;;;;;13.77;12.27;;;23.00;97.20;;;;;;1705675;29;20242;-73
2022/06/22 07:31:47;;;;;;;13.68;12.55;;;23.10;97.20;;;;;;1705437;29;20234;-73
2022/06/22 07:32:43;;;;;;;13.10;11.98;;;23.10;97.20;;;;;;1705286;29;20683;-73
2022/06/22 07:33:42;;;;;;;13.63;12.43;;;23.10;97.20;;;;;;1705404;29;20249;-73
2022/06/22 07:34:40;;;;;;;13.18;11.93;;;23.10;97.20;;;;;;1705507;29;20226;-73
2022/06/22 07:35:37;;;;;;;13.02;11.65;;;23.20;97.20;;;;;;1705348;29;20199;-73
2022/06/22 07:36:33;;;;;;;12.85;11.57;;;23.20;97.20;;;;;;1706169;29;20233;-73
2022/06/22 07:37:30;;;;;;;13.77;12.48;;;23.20;97.20;;;;;;1705439;29;20233;-73
2022/06/22 07:38:29;;;;;;;12.30;11.07;;;23.20;97.20;;;;;;1705362;29;20202;-73
2022/06/22 07:39:25;;;;;;;12.52;11.23;;;23.20;97.20;;;;;;1705487;29;20190;-73
2022/06/22 07:40:21;;;;;;;13.35;11.95;;;23.30;97.20;;;;;;1705578;29;20653;-73
2022/06/22 07:41:23;;;;;;;12.70;11.60;;;23.30;97.20;;;;;;1705275;29;20257;-73
2022/06/22 07:42:14;;;;;;;14.15;12.85;;;23.30;97.20;;;;;;1705735;28;20254;-73
2022/06/22 07:43:06;;;;;;;12.53;11.43;;;23.30;97.20;;;;;;1705950;29;20269;-73
2022/06/22 07:43:59;;;;;;;11.85;10.73;;;23.40;97.20;;;;;;1705708;29;20446;-73
2022/06/22 07:44:51;;;;;;;12.75;11.55;;;23.40;97.20;;;;;;1705583;28;20195;-73
2022/06/22 07:45:41;;;;;;;12.07;10.93;;;23.40;97.20;;;;;;1705274;29;20206;-74
2022/06/22 07:46:39;;;;;;;12.27;11.07;;;23.50;97.20;;;;;;1705097;29;20615;-73
2022/06/22 07:47:36;;;;;;;12.65;10.63;;;23.50;97.20;;;;;;1705621;29;20205;-73
2022/06/22 07:48:32;;;;;;;11.23;10.20;;;23.50;97.20;;;;;;1705575;29;20284;-74
2022/06/22 07:49:29;;;;;;;11.90;10.95;;;23.50;97.20;;;;;;1705998;29;20382;-73
2022/06/22 07:50:24;;;;;;;12.30;11.10;;;23.50;97.20;;;;;;1705444;28;20621;-73
2022/06/22 07:51:23;;;;;;;12.60;11.32;;;23.60;97.20;;;;;;1705264;29;20227;-73
2022/06/22 07:52:17;;;;;;;11.82;10.73;;;23.60;97.20;;;;;;1705540;29;20552;-73
2022/06/22 07:53:17;;;;;;;11.77;10.55;;;23.60;97.20;;;;;;1705550;29;20221;-74
2022/06/22 07:54:14;;;;;;;12.15;11.25;;;23.60;97.20;;;;;;1705407;29;20581;-73
2022/06/22 07:55:19;;;;;;;12.68;10.98;;;23.60;97.20;;;;;;1705333;29;20261;-73
2022/06/22 07:56:14;;;;;;;10.95;10.15;;;23.60;97.20;;;;;;1705521;29;20226;-73
2022/06/22 07:57:12;;;;;;;11.98;10.98;;;23.60;97.20;;;;;;1705336;29;20577;-73
2022/06/22 07:58:19;;;;;;;11.55;10.52;;;23.70;97.20;;;;;;1705379;29;20329;-73
2022/06/22 07:59:16;;;;;;;11.85;10.75;;;23.70;97.20;;;;;;1705649;29;20199;-74
2022/06/22 08:00:11;;;;;;;11.85;10.75;;;23.70;97.20;;;;;;1705928;29;20218;-73
2022/06/22 08:01:09;;;;;;;12.75;11.55;;;23.70;97.20;;;;;;1705741;29;20657;-73
2022/06/22 08:02:04;;;;;;;11.32;10.43;;;23.70;97.20;;;;;;1705399;29;20210;-74
2022/06/22 08:03:06;;;;;;;11.23;10.27;;;23.70;97.20;;;;;;1705933;28;20234;-73
2022/06/22 08:04:03;;;;;;;12.27;11.07;;;23.70;97.20;;;;;;1705283;29;20684;-73
2022/06/22 08:05:00;;;;;;;12.90;11.65;;;23.80;97.20;;;;;;1705484;29;20342;-74
2022/06/22 08:05:54;;;;;;;14.38;11.40;;;23.80;97.20;;;;;;1704969;29;20203;-73
2022/06/22 08:06:50;;;;;;;11.18;10.05;;;23.80;97.20;;;;;;1705633;29;20201;-73
2022/06/22 08:07:45;;;;;;;12.05;11.05;;;23.80;97.20;;;;;;1704861;28;20214;-74
2022/06/22 08:08:42;;;;;;;12.30;11.23;;;23.80;97.20;;;;;;1705298;29;20313;-73
2022/06/22 08:09:38;;;;;;;11.23;10.25;;;23.80;97.20;;;;;;1706450;29;20456;-73
2022/06/22 08:10:35;;;;;;;11.60;10.60;;;23.80;97.20;;;;;;1705064;28;20277;-73
2022/06/22 08:11:32;;;;;;;11.73;10.73;;;23.80;97.20;;;;;;1705324;29;20206;-73
2022/06/22 08:12:28;;;;;;;11.63;10.68;;;23.80;97.20;;;;;;1705091;29;20728;-73
2022/06/22 08:13:22;;;;;;;11.55;10.48;;;23.90;97.20;;;;;;1705046;29;20586;-73
2022/06/22 08:14:19;;;;;;;10.85;9.77;;;23.90;97.20;;;;;;1705685;28;20222;-73
2022/06/22 08:15:16;;;;;;;11.00;10.10;;;23.90;97.20;;;;;;1706152;29;20199;-73
2022/06/22 08:16:11;;;;;;;12.30;10.63;;;23.90;97.20;;;;;;1705805;29;20202;-73
2022/06/22 08:17:09;;;;;;;11.85;10.65;;;23.90;97.20;;;;;;1705092;29;20203;-73
2022/06/22 08:18:01;;;;;;;12.63;10.93;;;23.90;97.20;;;;;;1705353;29;20579;-74
2022/06/22 08:18:54;;;;;;;12.43;11.20;;;23.90;97.20;;;;;;1704978;29;20195;-73
2022/06/22 08:19:45;;;;;;;11.32;10.32;;;24.00;97.20;;;;;;1704891;29;20285;-73
2022/06/22 08:20:42;;;;;;;11.40;10.30;;;24.00;97.20;;;;;;1704827;29;20779;-73
2022/06/22 08:21:36;;;;;;;11.07;9.98;;;24.00;97.20;;;;;;1705296;29;20209;-73
2022/06/22 08:22:27;;;;;;;12.20;11.10;;;24.00;97.20;;;;;;1704344;29;20205;-73
2022/06/22 08:23:22;;;;;;;12.10;10.90;;;24.00;97.20;;;;;;1705357;29;20202;-73
2022/06/22 08:24:16;;;;;;;13.00;11.77;;;24.00;97.20;;;;;;1704492;29;20547;-72
2022/06/22 08:25:07;;;;;;;12.55;11.35;;;24.00;97.20;;;;;;1701881;29;20591;-73
2022/06/22 08:26:01;;;;;;;11.45;10.27;;;24.00;97.20;;;;;;1704423;29;20612;-73
2022/06/22 08:26:55;;;;;;;12.15;11.18;;;24.00;97.20;;;;;;1704269;29;20203;-74
2022/06/22 08:27:47;;;;;;;11.55;10.10;;;24.00;97.20;;;;;;1705100;29;20202;-73
2022/06/22 08:28:39;;;;;;;12.90;11.35;;;24.00;97.20;;;;;;1704663;29;20222;-74
2022/06/22 08:29:34;;;;;;;11.45;10.38;;;24.00;97.20;;;;;;1705520;28;20191;-74
2022/06/22 08:30:25;;;;;;;12.63;11.15;;;24.00;97.20;;;;;;1704600;28;20214;-74
2022/06/22 08:31:17;;;;;;;11.15;10.23;;;24.00;97.20;;;;;;1704871;29;20206;-73
2022/06/22 08:32:16;;;;;;;12.85;11.63;;;24.00;97.20;;;;;;1704927;29;20194;-73
2022/06/22 08:33:12;;;;;;;12.43;11.23;;;24.00;97.20;;;;;;1704321;29;20562;-73
2022/06/22 08:34:08;;;;;;;12.63;11.15;;;24.00;97.20;;;;;;1704954;29;20203;-73
2022/06/22 08:35:06;;;;;;;10.65;9.85;;;24.00;97.20;;;;;;1705130;29;20680;-73
2022/06/22 08:36:04;;;;;;;12.93;11.73;;;24.00;97.20;;;;;;1704708;29;20294;-73
2022/06/22 08:37:05;;;;;;;11.05;9.93;;;24.00;97.20;;;;;;1705081;29;20210;-74
2022/06/22 08:38:03;;;;;;;10.40;9.60;;;24.10;97.20;;;;;;1705046;29;20202;-74
2022/06/22 08:39:01;;;;;;;11.57;10.57;;;24.00;97.20;;;;;;1705240;29;20203;-73
2022/06/22 08:39:57;;;;;;;12.10;10.82;;;24.10;97.20;;;;;;1705194;29;20194;-74
2022/06/22 08:40:58;;;;;;;11.60;10.40;;;24.10;97.20;;;;;;1704930;29;20693;-73
2022/06/22 08:41:57;;;;;;;11.00;9.93;;;24.10;97.20;;;;;;1705549;29;20557;-74
2022/06/22 08:42:56;;;;;;;12.40;11.30;;;24.10;97.20;;;;;;1704570;29;20346;-74
2022/06/22 08:43:54;;;;;;;12.02;11.00;;;24.10;97.20;;;;;;1705445;29;21428;-73
2022/06/22 08:44:56;;;;;;;11.80;10.75;;;24.00;97.20;;;;;;1704751;29;20207;-74
2022/06/22 08:46:24;;;;;;;11.48;10.00;;;24.00;97.20;;;;;;1704958;29;20191;-74
2022/06/22 08:47:40;;;;;;;11.77;10.57;;;24.00;97.20;;;;;;1703285;29;20204;-73
2022/06/22 08:49:01;;;;;;;12.00;10.77;;;24.00;97.20;;;;;;1705420;29;20578;-74
2022/06/22 08:50:15;;;;;;;11.57;10.48;;;24.00;97.20;;;;;;1704955;29;20199;-73
2022/06/22 08:51:22;;;;;;;11.60;10.60;;;24.00;97.20;;;;;;1705121;29;20549;-73
2022/06/22 08:52:25;;;;;;;12.38;11.18;;;24.00;97.20;;;;;;1705495;29;20255;-74
2022/06/22 08:53:34;;;;;;;12.68;11.38;;;24.00;97.20;;;;;;1705271;29;20195;-73
2022/06/22 08:54:48;;;;;;;11.27;10.18;;;24.00;97.20;;;;;;1705164;29;20210;-73
2022/06/22 08:55:52;;;;;;;13.02;11.82;;;23.90;97.20;;;;;;1685041;29;20870;-73
2022/06/22 08:56:54;;;;;;;13.18;11.95;;;23.90;97.20;;;;;;1700243;28;20218;-73
2022/06/22 08:58:01;;;;;;;12.32;11.32;;;23.90;97.20;;;;;;1704456;28;20318;-74
2022/06/22 08:59:32;;;;;;;14.48;13.20;;;23.90;97.20;;;;;;1704631;29;20195;-74
2022/06/22 09:00:29;;;;;;;12.63;11.63;;;23.80;97.20;;;;;;1681219;29;20208;-74
2022/06/22 09:01:30;;;;;;;12.85;11.85;;;23.80;97.20;;;;;;1683767;29;20204;-74
2022/06/22 09:02:50;;;;;;;12.93;11.70;;;23.80;97.20;;;;;;1705191;28;20238;-73
2022/06/22 09:04:00;;;;;;;13.43;12.30;;;23.80;97.20;;;;;;1704083;29;20218;-74
2022/06/22 09:05:20;;;;;;;14.23;12.93;;;23.70;97.20;;;;;;1704449;29;20238;-73
2022/06/22 09:06:39;;;;;;;15.93;14.35;;;23.70;97.20;;;;;;1704644;29;20262;-73
2022/06/22 09:08:05;;;;;;;13.10;12.10;;;23.70;97.20;;;;;;1702419;29;20254;-73
2022/06/22 09:09:52;;;;;;;13.40;12.00;;;23.60;97.20;;;;;;1685222;28;20221;-73
2022/06/22 09:11:15;;;;;;;14.07;12.73;;;23.50;97.20;;;;;;1704042;28;20803;-74
2022/06/22 09:12:17;;;;;;;14.50;13.30;;;23.40;97.20;;;;;;1692569;28;20238;-74
2022/06/22 09:13:30;;;;;;;14.23;13.13;;;23.40;97.20;;;;;;1704511;29;20667;-74
2022/06/22 09:14:41;;;;;;;13.35;12.15;;;23.40;97.20;;;;;;1704922;29;20295;-74
2022/06/22 09:15:43;;;;;;;12.95;12.00;;;23.40;97.20;;;;;;1704605;29;20195;-74
2022/06/22 09:16:47;;;;;;;14.98;13.00;;;23.40;97.20;;;;;;1704482;29;20191;-74
2022/06/22 09:18:15;;;;;;;14.57;13.38;;;23.50;97.20;;;;;;1704623;29;20199;-73
2022/06/22 09:19:28;;;;;;;13.20;12.07;;;23.50;97.20;;;;;;1704738;28;20207;-74
2022/06/22 09:20:35;;;;;;;13.80;12.60;;;23.50;97.20;;;;;;1705485;29;20187;-73
2022/06/22 09:21:43;;;;;;;14.10;12.48;;;23.50;97.20;;;;;;1706653;29;20199;-73
2022/06/22 09:22:50;;;;;;;14.38;12.90;;;23.50;97.20;;;;;;1705701;29;20235;-73
2022/06/22 09:23:50;;;;;;;13.77;12.55;;;23.50;97.20;;;;;;1705665;29;20665;-73
2022/06/22 09:24:54;;;;;;;13.63;12.52;;;23.50;97.20;;;;;;1706246;29;20195;-74
2022/06/22 09:25:49;;;;;;;16.27;14.77;;;23.50;97.20;;;;;;1705428;29;20233;-74
2022/06/22 09:26:49;;;;;;;13.45;12.30;;;23.50;97.20;;;;;;1705110;29;20202;-73
2022/06/22 09:27:44;;;;;;;14.35;13.25;;;23.50;97.20;;;;;;1705740;29;20210;-74
2022/06/22 09:28:46;;;;;;;14.10;12.88;;;23.50;97.20;;;;;;1706227;29;20207;-74
2022/06/22 09:30:01;;;;;;;14.00;12.55;;;23.50;97.20;;;;;;1705042;29;20241;-73
2022/06/22 09:31:27;;;;;;;15.10;13.73;;;23.50;97.20;;;;;;1705317;28;20859;-74
2022/06/22 09:33:01;;;;;;;13.88;12.77;;;23.50;97.20;;;;;;1702364;28;20219;-73
2022/06/22 09:34:08;;;;;;;13.02;11.88;;;23.60;97.20;;;;;;1705362;29;20206;-74
2022/06/22 09:35:17;;;;;;;15.02;13.55;;;23.60;97.20;;;;;;1705610;29;20207;-74
2022/06/22 09:36:54;;;;;;;14.88;13.57;;;23.60;97.20;;;;;;1704764;29;20224;-73
2022/06/22 09:38:17;;;;;;;13.82;12.70;;;23.60;97.20;;;;;;1705225;29;20294;-74
2022/06/22 09:39:30;;;;;;;12.57;11.38;;;23.60;97.20;;;;;;1705063;29;20592;-74
2022/06/22 09:40:50;;;;;;;13.20;12.20;;;23.60;97.20;;;;;;1705362;29;20261;-74
2022/06/22 09:41:55;;;;;;;15.27;13.98;;;23.70;97.20;;;;;;1705292;29;20195;-74
2022/06/22 09:43:17;;;;;;;14.23;12.98;;;23.70;97.20;;;;;;1705721;29;20249;-73
2022/06/22 09:44:33;;;;;;;13.95;12.52;;;23.70;97.20;;;;;;1705560;29;20596;-73
2022/06/22 09:45:39;;;;;;;14.00;12.70;;;23.70;97.20;;;;;;1706598;29;20206;-73
2022/06/22 09:47:04;;;;;;;15.40;14.00;;;23.70;97.20;;;;;;1705388;29;20662;-73
2022/06/22 09:48:21;;;;;;;14.48;13.20;;;23.70;97.20;;;;;;1705180;29;20472;-74
2022/06/22 09:49:30;;;;;;;14.10;12.60;;;23.70;97.20;;;;;;1705533;28;20292;-74
2022/06/22 09:50:40;;;;;;;14.10;12.90;;;23.70;97.20;;;;;;1704882;28;20577;-73
2022/06/22 09:51:49;;;;;;;14.52;13.20;;;23.70;97.20;;;;;;1705200;29;20807;-73
2022/06/22 09:53:23;;;;;;;13.73;12.52;;;23.80;97.20;;;;;;1706204;29;20205;-74
2022/06/22 09:56:27;;;;;;;13.85;12.65;;;23.70;97.20;;;;;;1705519;29;20206;-73
2022/06/22 09:57:41;;;;;;;13.43;12.43;;;23.70;97.20;;;;;;1703789;29;20198;-73
2022/06/22 09:58:55;;;;;;;13.35;12.20;;;23.70;97.20;;;;;;1705876;29;20230;-73
2022/06/22 10:00:05;;;;;;;13.82;12.45;;;23.60;97.20;;;;;;1706288;29;20893;-73
2022/06/22 10:01:02;;;;;;;13.38;12.18;;;23.70;97.20;;;;;;1703656;29;20266;-73
2022/06/22 10:02:04;;;;;;;14.05;12.65;;;23.70;97.20;;;;;;1705305;29;20289;-73
2022/06/22 10:03:35;;;;;;;15.55;14.10;;;23.60;97.20;;;;;;1705717;29;20338;-73
2022/06/22 10:05:10;;;;;;;14.90;13.68;;;23.60;97.20;;;;;;1706571;29;20226;-73
2022/06/22 10:06:38;;;;;;;14.27;13.18;;;23.50;97.20;;;;;;1705208;29;20191;-73
2022/06/22 10:07:45;;;;;;;14.65;13.25;;;23.40;97.20;;;;;;1685090;29;20204;-73
2022/06/22 10:09:06;;;;;;;14.48;13.27;;;23.30;97.20;;;;;;1685328;29;20573;-73
2022/06/22 10:10:09;;;;;;;14.52;13.30;;;23.30;97.20;;;;;;1696674;28;20203;-74
2022/06/22 10:11:11;;;;;;;14.82;13.20;;;23.30;97.20;;;;;;1707905;28;20223;-74